createdAt,value
2022-09-28T00:02:50.057Z,5.80
2022-09-28T00:07:51.935Z,5.13
2022-09-28T00:12:54.061Z,4.60
2022-09-28T00:17:55.868Z,4.40
2022-09-28T00:22:57.694Z,5.03
2022-09-28T00:27:59.552Z,5.93
2022-09-28T00:33:01.335Z,6.32
2022-09-28T00:38:03.215Z,5.25
2022-09-28T14:24:34.197Z,1.70
2022-09-28T14:29:37.019Z,1.52
2022-09-28T14:34:43.472Z,1.70
2022-09-28T14:39:46.286Z,1.65
2022-09-28T14:45:06.598Z,1.60
2022-09-28T14:50:21.640Z,1.90
2022-09-28T14:55:27.731Z,2.40
2022-09-28T15:00:29.873Z,1.83
2022-09-28T15:05:47.479Z,1.70
2022-09-28T15:10:52.367Z,3.63
2022-09-28T15:15:58.550Z,1.77
2022-09-28T15:21:00.554Z,1.92
2022-09-28T15:26:03.263Z,1.63
2022-09-28T15:31:05.265Z,2.20
2022-09-28T15:36:07.694Z,3.47
2022-09-28T15:41:09.669Z,1.93
2022-09-28T15:46:17.600Z,1.10
2022-09-28T15:51:20.107Z,0.80
2022-09-28T15:56:22.266Z,0.70
2022-09-28T16:01:42.876Z,0.80
2022-09-28T16:06:44.828Z,0.50
2022-09-28T16:11:46.648Z,0.52
2022-09-28T16:16:49.756Z,0.50
2022-09-28T16:21:52.837Z,0.60
2022-09-28T16:26:59.211Z,0.60
2022-09-28T16:32:19.702Z,0.60
2022-09-28T16:37:31.432Z,0.63
2022-09-28T16:42:33.339Z,0.50
2022-09-28T16:47:35.191Z,0.60
2022-09-28T16:52:37.122Z,0.80
2022-09-28T16:57:39.006Z,0.60
2022-09-28T17:02:46.775Z,0.70
2022-09-28T17:07:49.898Z,0.75
2022-09-28T17:12:51.838Z,1.00
2022-09-28T17:17:53.674Z,0.70
2022-09-28T17:22:55.792Z,0.88
2022-09-28T17:27:58.159Z,0.85
2022-09-28T17:32:59.980Z,1.20
2022-09-28T17:38:01.838Z,1.27
2022-09-28T17:43:03.739Z,1.40
2022-09-28T17:48:06.361Z,1.38
2022-09-28T17:53:08.693Z,1.30
